Time;durP1;ratioP1;P1;durP2;ratioP2;P2;SDS_P1;SDS_P2;PMS_P1;PMS_P2;Temp;Humidity;BMP_temperature;BMP_pressure;BME280_temperature;BME280_humidity;BME280_pressure;Samples;Min_cycle;Max_cycle;Signal;HPM_P1;HPM_P2
2023/05/30 00:01:42;;;;;;;9.60;5.57;;;20.70;60.20;;;;;;5018384;28;20038;-63
2023/05/30 00:04:08;;;;;;;11.00;5.50;;;20.60;61.20;;;;;;5017990;28;20037;-62
2023/05/30 00:06:34;;;;;;;9.85;5.38;;;20.60;60.60;;;;;;5018020;28;20040;-61
2023/05/30 00:09:03;;;;;;;9.93;5.53;;;20.50;60.80;;;;;;5018513;28;20076;-61
2023/05/30 00:11:29;;;;;;;9.98;5.68;;;20.50;61.10;;;;;;5017798;28;20030;-61
2023/05/30 00:13:56;;;;;;;8.30;4.82;;;20.50;61.70;;;;;;5017876;28;20447;-61
2023/05/30 00:16:23;;;;;;;12.13;6.18;;;20.40;61.20;;;;;;5018075;28;20498;-60
2023/05/30 00:18:52;;;;;;;12.65;6.60;;;20.40;61.50;;;;;;5018066;28;20076;-63
2023/05/30 00:21:19;;;;;;;10.82;6.03;;;20.40;62.00;;;;;;5017958;28;20046;-61
2023/05/30 00:23:45;;;;;;;8.25;5.28;;;20.40;62.40;;;;;;5018204;28;20100;-61
2023/05/30 00:26:12;;;;;;;10.98;6.22;;;20.30;62.10;;;;;;5018162;28;20053;-63
2023/05/30 00:28:38;;;;;;;11.32;6.93;;;20.30;62.10;;;;;;5017835;28;20033;-63
2023/05/30 00:31:05;;;;;;;12.35;6.60;;;20.20;62.50;;;;;;5017498;28;20558;-61
2023/05/30 00:33:32;;;;;;;10.68;6.10;;;20.20;62.90;;;;;;5017801;28;20018;-63
2023/05/30 00:35:58;;;;;;;12.60;6.78;;;20.10;63.10;;;;;;5016533;28;20030;-62
2023/05/30 00:38:24;;;;;;;10.35;5.70;;;20.10;63.20;;;;;;5017401;28;20022;-61
2023/05/30 00:40:50;;;;;;;10.82;6.10;;;20.00;63.60;;;;;;5017365;28;20036;-61
2023/05/30 00:43:18;;;;;;;10.57;5.80;;;20.00;63.90;;;;;;5017025;28;20025;-63
2023/05/30 00:45:44;;;;;;;10.68;5.90;;;19.90;63.70;;;;;;5017256;28;20034;-61
2023/05/30 00:48:11;;;;;;;11.77;5.80;;;19.90;64.00;;;;;;5017247;28;20356;-62
2023/05/30 00:50:38;;;;;;;10.65;5.72;;;19.90;64.00;;;;;;5017045;28;20530;-62
2023/05/30 00:53:05;;;;;;;11.48;6.07;;;19.80;64.60;;;;;;5017312;28;20025;-61
2023/05/30 00:55:32;;;;;;;10.05;5.55;;;19.70;64.80;;;;;;5017589;28;20026;-63
2023/05/30 00:57:58;;;;;;;12.00;6.32;;;19.60;65.50;;;;;;5016740;28;20029;-62
2023/05/30 01:00:26;;;;;;;9.52;5.38;;;19.60;65.70;;;;;;5016815;28;20105;-61
2023/05/30 01:02:57;;;;;;;10.02;5.35;;;19.50;66.00;;;;;;5017390;28;20061;-63
2023/05/30 01:05:24;;;;;;;8.00;4.90;;;19.40;66.10;;;;;;5017155;28;20101;-62
2023/05/30 01:07:51;;;;;;;10.65;5.10;;;19.40;66.30;;;;;;5016764;28;20034;-60
2023/05/30 01:10:18;;;;;;;8.00;4.57;;;19.40;66.30;;;;;;5016665;28;20405;-62
2023/05/30 01:13:02;;;;;;;9.18;5.03;;;19.40;66.70;;;;;;5017043;28;20037;-61
2023/05/30 01:15:32;;;;;;;9.65;4.65;;;19.40;66.80;;;;;;5016987;28;20044;-63
2023/05/30 01:18:12;;;;;;;7.85;4.68;;;19.40;66.60;;;;;;5016694;28;20105;-61
2023/05/30 01:20:41;;;;;;;7.05;4.30;;;19.40;67.00;;;;;;5016887;28;20037;-63
2023/05/30 01:23:14;;;;;;;8.65;5.10;;;19.40;67.00;;;;;;5015833;28;20446;-61
2023/05/30 01:25:59;;;;;;;;;;;19.30;67.00;;;;;;5017242;28;20117;-62
2023/05/30 01:28:29;;;;;;;7.18;4.05;;;19.40;68.00;;;;;;5016762;28;19907;-62
2023/05/30 01:30:57;;;;;;;8.27;4.45;;;19.30;67.00;;;;;;5016631;28;20058;-62
2023/05/30 01:33:25;;;;;;;7.97;4.65;;;19.30;66.90;;;;;;5015689;28;20041;-62
2023/05/30 01:35:52;;;;;;;7.60;4.10;;;19.30;66.90;;;;;;5016612;28;20096;-61
2023/05/30 01:38:18;;;;;;;7.50;4.43;;;19.30;67.00;;;;;;5016321;28;20030;-61
2023/05/30 01:40:50;;;;;;;8.48;4.60;;;19.30;67.00;;;;;;5016490;28;20021;-63
2023/05/30 01:43:15;;;;;;;8.23;4.72;;;19.30;67.00;;;;;;5015908;28;20041;-62
2023/05/30 01:45:53;;;;;;;8.98;4.50;;;19.30;67.00;;;;;;5016222;28;20152;-62
2023/05/30 01:48:52;;;;;;;7.78;4.50;;;19.30;66.90;;;;;;5016710;28;20032;-62
2023/05/30 01:51:27;;;;;;;10.10;5.05;;;19.30;67.40;;;;;;4993045;28;20065;-63
2023/05/30 01:53:59;;;;;;;8.43;4.60;;;19.30;67.00;;;;;;5016244;28;20030;-61
2023/05/30 01:56:27;;;;;;;7.93;4.60;;;19.30;67.20;;;;;;5016340;28;20181;-62
2023/05/30 01:58:54;;;;;;;8.73;4.50;;;19.30;67.40;;;;;;5015905;28;20050;-62
2023/05/30 02:01:23;;;;;;;7.68;4.47;;;19.30;67.20;;;;;;5015878;28;20585;-63
2023/05/30 02:03:49;;;;;;;8.00;4.38;;;19.30;67.30;;;;;;5016141;28;20037;-62
2023/05/30 02:06:15;;;;;;;6.15;4.18;;;19.30;67.20;;;;;;4998470;28;20022;-61
2023/05/30 02:08:41;;;;;;;7.40;4.38;;;19.20;67.40;;;;;;5015824;28;20022;-62
2023/05/30 02:11:07;;;;;;;8.45;5.05;;;19.30;67.40;;;;;;5015374;28;20048;-62
2023/05/30 02:13:33;;;;;;;9.02;5.47;;;19.30;67.50;;;;;;5015674;28;20072;-62
2023/05/30 02:15:59;;;;;;;9.68;5.13;;;19.30;68.00;;;;;;5015685;28;20022;-62
2023/05/30 02:18:27;;;;;;;9.60;5.10;;;19.20;67.90;;;;;;5015948;28;20455;-62
2023/05/30 02:20:54;;;;;;;7.82;4.47;;;19.20;67.80;;;;;;5015579;28;20033;-61
2023/05/30 02:23:21;;;;;;;7.20;4.32;;;19.20;67.60;;;;;;5015456;28;20462;-63
2023/05/30 02:25:47;;;;;;;8.00;4.55;;;19.20;67.70;;;;;;5015529;28;20117;-63
2023/05/30 02:28:13;;;;;;;6.75;4.22;;;19.20;67.80;;;;;;5015524;28;20413;-62
2023/05/30 02:30:39;;;;;;;8.73;4.32;;;19.20;67.80;;;;;;5015899;28;20121;-63
2023/05/30 02:33:05;;;;;;;7.03;4.32;;;19.20;67.90;;;;;;5015351;28;20443;-62
2023/05/30 02:35:31;;;;;;;6.88;4.45;;;19.20;67.90;;;;;;5015383;28;20057;-62
2023/05/30 02:37:57;;;;;;;6.68;4.20;;;19.20;68.00;;;;;;5015397;28;20046;-62
2023/05/30 02:40:23;;;;;;;7.65;4.43;;;19.20;68.10;;;;;;5015368;28;20026;-61
2023/05/30 02:42:49;;;;;;;6.78;4.22;;;19.20;68.00;;;;;;5015283;28;20072;-62
2023/05/30 02:45:15;;;;;;;8.15;4.75;;;19.20;68.20;;;;;;5015171;28;20058;-62
2023/05/30 02:47:41;;;;;;;8.23;4.20;;;19.20;68.40;;;;;;5015339;28;20030;-63
2023/05/30 02:50:08;;;;;;;7.55;4.18;;;19.20;68.50;;;;;;5015238;28;20038;-62
2023/05/30 02:52:33;;;;;;;7.03;3.95;;;19.20;68.50;;;;;;5015237;28;20026;-62
2023/05/30 02:54:59;;;;;;;7.20;3.95;;;19.10;68.50;;;;;;5015164;28;20037;-61
2023/05/30 02:57:25;;;;;;;6.38;4.03;;;19.10;68.40;;;;;;5015235;28;20018;-61
2023/05/30 02:59:52;;;;;;;9.40;4.30;;;19.10;68.40;;;;;;5015128;28;20037;-61
2023/05/30 03:02:18;;;;;;;7.30;3.60;;;19.10;68.50;;;;;;5015129;28;20101;-63
2023/05/30 03:04:46;;;;;;;6.40;3.65;;;19.10;68.40;;;;;;5015086;28;20101;-61
2023/05/30 03:07:13;;;;;;;7.22;4.00;;;19.10;68.30;;;;;;5015438;28;20034;-61
2023/05/30 03:09:40;;;;;;;6.55;3.72;;;19.10;68.20;;;;;;5015398;28;20097;-62
2023/05/30 03:12:06;;;;;;;7.47;3.80;;;19.10;68.30;;;;;;5014951;28;20516;-61
2023/05/30 03:14:32;;;;;;;6.10;3.60;;;19.00;68.20;;;;;;5015017;28;20072;-62
2023/05/30 03:16:58;;;;;;;7.65;3.92;;;19.00;68.20;;;;;;5015095;28;20148;-61
2023/05/30 03:19:24;;;;;;;5.95;3.80;;;19.00;68.40;;;;;;5015046;28;20034;-61
2023/05/30 03:21:51;;;;;;;7.25;4.15;;;19.00;68.20;;;;;;5015736;28;20033;-61
2023/05/30 03:24:17;;;;;;;6.85;4.20;;;19.00;68.00;;;;;;5018684;28;20386;-63
2023/05/30 03:26:43;;;;;;;5.97;3.55;;;19.00;68.10;;;;;;5019066;28;20122;-62
2023/05/30 03:29:09;;;;;;;7.45;3.90;;;19.00;67.90;;;;;;5018748;28;20110;-62
2023/05/30 03:31:36;;;;;;;10.27;3.85;;;19.10;67.60;;;;;;5019118;28;20026;-62
2023/05/30 03:34:02;;;;;;;6.05;3.63;;;19.00;67.40;;;;;;5018494;28;20030;-61
2023/05/30 03:36:28;;;;;;;6.65;3.72;;;19.10;67.20;;;;;;5018620;28;20490;-60
2023/05/30 03:38:55;;;;;;;5.90;3.70;;;19.10;67.00;;;;;;5018607;28;20053;-60
2023/05/30 03:41:21;;;;;;;9.45;4.25;;;19.10;66.80;;;;;;5018473;28;20030;-61
2023/05/30 03:43:47;;;;;;;6.47;3.60;;;19.20;66.60;;;;;;5018165;28;20069;-62
2023/05/30 03:46:17;;;;;;;6.40;3.60;;;19.20;66.50;;;;;;5018977;28;20066;-63
2023/05/30 03:48:43;;;;;;;8.38;3.55;;;19.20;66.30;;;;;;5018602;28;20026;-62
2023/05/30 03:51:10;;;;;;;7.18;4.00;;;19.20;66.20;;;;;;5000918;28;20157;-61
2023/05/30 03:53:36;;;;;;;7.75;3.85;;;19.20;66.10;;;;;;5018249;28;20033;-62
2023/05/30 03:56:02;;;;;;;8.90;4.43;;;19.30;66.00;;;;;;5018730;28;20030;-62
2023/05/30 03:58:28;;;;;;;6.82;3.72;;;19.30;65.90;;;;;;5018137;28;20100;-61
2023/05/30 04:00:54;;;;;;;6.00;3.47;;;19.30;65.80;;;;;;5018165;28;20049;-62
2023/05/30 04:03:20;;;;;;;6.43;3.80;;;19.40;65.70;;;;;;5018296;28;20439;-61
2023/05/30 04:05:49;;;;;;;6.82;3.72;;;19.40;65.50;;;;;;5018360;28;20026;-59
2023/05/30 04:08:15;;;;;;;8.95;3.67;;;19.40;65.30;;;;;;5018570;28;20090;-60
2023/05/30 04:10:42;;;;;;;6.28;3.53;;;19.40;65.20;;;;;;5017864;28;20459;-61
2023/05/30 04:13:08;;;;;;;9.65;3.92;;;19.40;65.00;;;;;;5017866;28;20022;-62
2023/05/30 04:15:34;;;;;;;5.68;3.40;;;19.50;65.00;;;;;;5017886;28;20114;-62
2023/05/30 04:18:01;;;;;;;7.75;3.60;;;19.50;65.00;;;;;;5018329;28;20030;-62
2023/05/30 04:20:27;;;;;;;5.28;3.33;;;19.60;64.90;;;;;;5017713;28;20030;-61
2023/05/30 04:22:53;;;;;;;7.13;3.33;;;19.70;64.80;;;;;;5017921;28;20452;-61
2023/05/30 04:25:19;;;;;;;6.32;3.50;;;19.80;64.80;;;;;;5018233;28;20075;-61
2023/05/30 04:27:46;;;;;;;5.72;3.53;;;20.00;64.60;;;;;;5017936;28;20033;-61
2023/05/30 04:30:12;;;;;;;7.22;4.00;;;20.20;64.20;;;;;;5017538;28;20022;-62
2023/05/30 04:32:39;;;;;;;6.85;3.67;;;20.40;63.60;;;;;;5017686;28;20029;-60
2023/05/30 04:35:07;;;;;;;7.47;3.70;;;20.50;63.20;;;;;;5017370;28;20355;-62
2023/05/30 04:37:33;;;;;;;6.85;3.72;;;20.70;62.80;;;;;;5017717;28;20022;-61
2023/05/30 04:40:00;;;;;;;9.52;4.47;;;21.00;62.40;;;;;;5017688;28;20022;-62
2023/05/30 04:42:29;;;;;;;7.82;4.05;;;21.20;62.00;;;;;;5016999;28;20059;-61
2023/05/30 04:44:55;;;;;;;7.20;3.95;;;21.50;61.60;;;;;;5017166;28;20045;-65
2023/05/30 04:47:24;;;;;;;9.10;4.03;;;22.00;61.10;;;;;;5017298;28;20029;-61
2023/05/30 04:49:53;;;;;;;6.32;3.80;;;22.60;60.30;;;;;;5017429;28;20026;-62
2023/05/30 04:52:20;;;;;;;6.30;4.00;;;23.40;58.80;;;;;;5017151;28;20030;-62
2023/05/30 04:54:47;;;;;;;5.90;3.45;;;24.30;57.10;;;;;;5017233;28;20053;-61
2023/05/30 04:57:13;;;;;;;5.43;3.45;;;25.00;55.30;;;;;;5017171;28;20026;-61
2023/05/30 04:59:39;;;;;;;6.70;3.80;;;25.80;54.40;;;;;;5017019;28;20026;-61
2023/05/30 05:02:05;;;;;;;6.85;3.97;;;26.50;52.90;;;;;;5016971;28;20101;-61
2023/05/30 05:04:31;;;;;;;7.05;3.80;;;27.30;51.90;;;;;;5016889;28;20029;-61
2023/05/30 05:06:57;;;;;;;5.32;3.47;;;28.00;50.30;;;;;;5016925;28;20038;-61
2023/05/30 05:09:26;;;;;;;7.28;3.70;;;28.60;49.20;;;;;;5016954;28;20026;-60
2023/05/30 05:11:56;;;;;;;5.05;3.45;;;29.30;48.10;;;;;;5016756;28;20030;-61
2023/05/30 05:14:22;;;;;;;7.60;4.03;;;29.90;46.90;;;;;;5015856;28;20014;-61
2023/05/30 05:16:49;;;;;;;7.88;4.47;;;30.40;45.70;;;;;;5016734;28;20105;-60
2023/05/30 05:19:15;;;;;;;6.32;3.67;;;30.80;44.90;;;;;;5016725;28;20093;-62
2023/05/30 05:21:41;;;;;;;7.28;4.50;;;30.70;44.60;;;;;;5016922;28;20053;-61
2023/05/30 05:24:08;;;;;;;7.30;3.95;;;30.10;44.30;;;;;;4999207;28;20034;-62
2023/05/30 05:26:34;;;;;;;11.02;4.95;;;29.40;44.70;;;;;;5016581;28;20057;-62
2023/05/30 05:29:00;;;;;;;7.15;3.92;;;28.60;45.50;;;;;;5017061;28;20041;-68
2023/05/30 05:31:27;;;;;;;8.18;3.85;;;28.00;46.30;;;;;;5016631;28;20037;-59
2023/05/30 05:33:52;;;;;;;18.27;5.05;;;27.40;47.10;;;;;;5016369;28;20022;-60
2023/05/30 05:36:20;;;;;;;9.55;3.80;;;26.90;47.80;;;;;;5017140;28;20025;-62
2023/05/30 05:38:46;;;;;;;6.85;3.97;;;26.40;48.70;;;;;;5016274;28;20113;-61
2023/05/30 05:41:12;;;;;;;11.40;4.30;;;25.90;49.40;;;;;;5016313;28;20097;-60
2023/05/30 05:43:38;;;;;;;10.80;4.63;;;25.50;50.00;;;;;;5015618;28;20121;-62
2023/05/30 05:46:04;;;;;;;9.50;4.20;;;25.20;50.80;;;;;;5015909;28;20041;-62
2023/05/30 05:48:30;;;;;;;9.52;4.57;;;24.90;51.30;;;;;;5016719;28;20049;-59
2023/05/30 05:50:56;;;;;;;8.88;4.13;;;24.60;51.60;;;;;;5016038;28;20080;-61
2023/05/30 05:53:22;;;;;;;6.68;3.88;;;24.30;51.80;;;;;;5015975;28;20014;-60
2023/05/30 05:55:48;;;;;;;7.78;4.20;;;24.00;52.30;;;;;;4998733;28;20112;-61
2023/05/30 05:58:14;;;;;;;8.98;4.30;;;23.80;52.90;;;;;;5016193;28;20130;-63
2023/05/30 06:00:40;;;;;;;9.38;4.25;;;23.60;53.30;;;;;;5015886;28;20387;-59
2023/05/30 06:03:07;;;;;;;8.25;4.07;;;23.50;53.60;;;;;;5016271;28;20374;-63
2023/05/30 06:05:33;;;;;;;10.55;4.53;;;23.60;53.90;;;;;;5015828;28;20025;-63
2023/05/30 06:07:59;;;;;;;7.03;3.90;;;24.30;54.00;;;;;;4998484;28;20037;-61
2023/05/30 06:10:25;;;;;;;8.52;4.03;;;25.60;52.90;;;;;;5015693;28;20061;-62
2023/05/30 06:12:51;;;;;;;7.80;3.95;;;27.30;50.40;;;;;;5015681;28;20049;-63
2023/05/30 06:15:17;;;;;;;6.60;3.55;;;29.00;47.80;;;;;;5016235;28;20061;-63
2023/05/30 06:17:43;;;;;;;7.40;3.67;;;30.50;45.70;;;;;;5016011;28;20044;-62
2023/05/30 06:20:09;;;;;;;8.38;4.18;;;31.50;43.80;;;;;;5015899;28;20076;-63
2023/05/30 06:22:35;;;;;;;5.55;3.75;;;31.80;42.00;;;;;;5016158;28;20339;-63
2023/05/30 06:25:01;;;;;;;6.57;4.00;;;32.20;41.50;;;;;;5015515;28;20358;-63
2023/05/30 06:27:27;;;;;;;8.43;4.43;;;32.90;40.50;;;;;;5015835;28;20033;-62
2023/05/30 06:29:53;;;;;;;6.80;4.03;;;33.40;39.20;;;;;;4998109;28;20022;-64
2023/05/30 06:32:19;;;;;;;5.68;3.53;;;33.90;38.10;;;;;;5015383;28;20093;-63
2023/05/30 06:34:45;;;;;;;6.20;3.65;;;34.40;37.60;;;;;;5015404;28;20197;-63
2023/05/30 06:37:13;;;;;;;9.40;3.88;;;34.90;36.70;;;;;;5015701;28;20046;-62
2023/05/30 06:39:39;;;;;;;6.55;3.65;;;35.40;35.70;;;;;;5015641;28;20531;-63
2023/05/30 06:42:07;;;;;;;8.68;4.65;;;35.40;35.30;;;;;;5015446;28;20026;-62
2023/05/30 06:44:34;;;;;;;6.40;3.75;;;34.90;35.40;;;;;;5014992;28;20414;-62
2023/05/30 06:47:01;;;;;;;7.25;4.28;;;34.20;36.00;;;;;;5015513;28;20115;-63
2023/05/30 06:49:27;;;;;;;8.40;4.60;;;33.40;36.80;;;;;;5015299;28;20223;-62
2023/05/30 06:51:52;;;;;;;10.52;4.53;;;32.70;37.40;;;;;;5014282;28;20030;-62
2023/05/30 06:54:18;;;;;;;5.50;3.60;;;32.10;38.40;;;;;;5014751;28;20442;-62
2023/05/30 06:56:45;;;;;;;5.07;3.50;;;31.80;38.90;;;;;;5015937;28;20018;-61
2023/05/30 06:59:10;;;;;;;4.72;3.50;;;31.50;39.50;;;;;;5019591;28;20101;-62
2023/05/30 07:01:37;;;;;;;7.18;3.92;;;31.30;39.80;;;;;;5019830;28;20443;-62
2023/05/30 07:04:03;;;;;;;7.75;4.18;;;31.10;40.00;;;;;;5019131;28;20466;-61
2023/05/30 07:06:29;;;;;;;8.18;4.30;;;30.90;40.40;;;;;;5019151;28;20065;-63
2023/05/30 07:08:55;;;;;;;5.75;3.97;;;30.70;40.40;;;;;;5019119;28;20034;-63
2023/05/30 07:11:22;;;;;;;6.95;3.83;;;30.40;40.40;;;;;;5019288;28;20025;-61
2023/05/30 07:13:48;;;;;;;9.35;5.00;;;30.00;40.80;;;;;;5018958;28;20034;-61
2023/05/30 07:16:14;;;;;;;7.32;4.05;;;29.70;41.00;;;;;;5018980;28;20046;-61
2023/05/30 07:18:40;;;;;;;7.90;4.35;;;29.20;41.40;;;;;;5019451;28;20414;-63
2023/05/30 07:21:07;;;;;;;8.15;4.20;;;28.90;41.80;;;;;;5018909;28;20045;-64
2023/05/30 07:23:36;;;;;;;7.95;4.55;;;28.50;42.30;;;;;;5018745;28;20033;-62
2023/05/30 07:26:02;;;;;;;6.85;4.45;;;28.20;42.90;;;;;;5019083;28;20029;-63
2023/05/30 07:28:28;;;;;;;8.18;4.35;;;28.00;43.30;;;;;;5018803;28;20030;-63
2023/05/30 07:30:54;;;;;;;5.95;4.13;;;27.90;43.60;;;;;;5018705;28;20026;-63
2023/05/30 07:33:20;;;;;;;7.57;4.20;;;27.80;44.10;;;;;;5018530;28;20026;-61
2023/05/30 07:35:46;;;;;;;7.18;4.53;;;27.70;44.50;;;;;;5018638;28;20028;-62
2023/05/30 07:38:12;;;;;;;7.20;4.43;;;27.60;44.70;;;;;;5018245;28;20427;-62
2023/05/30 07:40:37;;;;;;;6.07;4.32;;;27.60;45.00;;;;;;5019105;28;20104;-61
2023/05/30 07:43:03;;;;;;;8.98;4.47;;;27.50;45.10;;;;;;5018567;28;20021;-62
2023/05/30 07:45:29;;;;;;;9.50;4.40;;;27.50;45.10;;;;;;5017722;28;20046;-63
2023/05/30 07:47:55;;;;;;;7.93;4.53;;;27.50;45.20;;;;;;5017776;28;20113;-63
2023/05/30 07:50:21;;;;;;;7.65;4.65;;;27.50;45.30;;;;;;5001023;28;20022;-64
2023/05/30 07:52:47;;;;;;;7.07;4.40;;;27.50;45.60;;;;;;5016966;28;20451;-62
2023/05/30 07:55:13;;;;;;;10.57;4.68;;;27.50;45.30;;;;;;5018230;28;20014;-62
2023/05/30 07:57:39;;;;;;;8.40;4.97;;;27.50;45.30;;;;;;5018535;28;20029;-62
2023/05/30 08:00:08;;;;;;;6.75;4.47;;;27.70;45.00;;;;;;5018152;28;20028;-62
2023/05/30 08:02:35;;;;;;;7.07;4.03;;;27.70;45.40;;;;;;5018112;28;20455;-61
2023/05/30 08:05:00;;;;;;;7.30;4.10;;;27.90;45.40;;;;;;5018264;28;20109;-63
2023/05/30 08:07:26;;;;;;;11.68;8.82;;;27.90;45.20;;;;;;5017794;28;20384;-63
2023/05/30 08:09:53;;;;;;;18.98;15.15;;;27.90;44.80;;;;;;5017986;28;20018;-61
2023/05/30 08:12:19;;;;;;;9.50;6.10;;;27.90;44.90;;;;;;5017972;28;20029;-61
2023/05/30 08:14:46;;;;;;;7.72;5.10;;;27.90;44.90;;;;;;5017042;28;20026;-62
2023/05/30 08:17:13;;;;;;;7.35;4.43;;;28.00;44.80;;;;;;5000594;28;20125;-61
2023/05/30 08:19:40;;;;;;;8.55;4.88;;;28.10;44.60;;;;;;5018104;28;20022;-63
2023/05/30 08:22:06;;;;;;;9.48;5.28;;;28.20;44.20;;;;;;5017790;28;20033;-62
2023/05/30 08:24:32;;;;;;;6.72;4.18;;;28.20;43.90;;;;;;5017771;28;20447;-62
2023/05/30 08:27:00;;;;;;;21.13;10.25;;;28.20;43.80;;;;;;5017727;28;20030;-63
2023/05/30 08:29:26;;;;;;;22.77;11.85;;;28.30;43.70;;;;;;5017928;28;20030;-61
2023/05/30 08:31:52;;;;;;;23.77;12.00;;;28.30;43.40;;;;;;5017526;28;20033;-61
2023/05/30 08:34:18;;;;;;;17.38;11.88;;;28.20;43.70;;;;;;5017542;28;20137;-63
2023/05/30 08:36:44;;;;;;;10.32;5.57;;;28.20;43.70;;;;;;5018037;28;20030;-62
2023/05/30 08:39:12;;;;;;;8.93;5.57;;;28.20;43.70;;;;;;5017763;28;20018;-63
2023/05/30 08:41:38;;;;;;;9.75;5.10;;;28.10;43.30;;;;;;5017392;28;20034;-61
2023/05/30 08:44:04;;;;;;;6.93;4.35;;;28.10;43.60;;;;;;5017151;28;20030;-62
2023/05/30 08:46:30;;;;;;;7.78;4.15;;;28.10;43.70;;;;;;5017362;28;20029;-61
2023/05/30 08:48:56;;;;;;;8.27;4.65;;;28.20;43.50;;;;;;5017551;28;20064;-63
2023/05/30 08:51:28;;;;;;;7.10;4.53;;;28.30;43.30;;;;;;5017183;28;20034;-61
2023/05/30 08:54:00;;;;;;;9.48;4.85;;;28.40;43.20;;;;;;5017480;28;20109;-62
2023/05/30 08:56:32;;;;;;;9.80;5.22;;;28.40;42.50;;;;;;5017442;28;20026;-61
2023/05/30 08:59:00;;;;;;;10.32;5.28;;;28.40;42.40;;;;;;5017658;28;20030;-62
2023/05/30 09:01:28;;;;;;;10.85;5.35;;;28.50;42.50;;;;;;5017061;28;20026;-60
2023/05/30 09:03:56;;;;;;;6.93;4.53;;;28.50;41.90;;;;;;5017113;28;20073;-62
2023/05/30 09:06:24;;;;;;;11.95;5.78;;;28.50;41.80;;;;;;5016116;28;20049;-63
2023/05/30 09:08:51;;;;;;;11.40;6.00;;;28.50;42.00;;;;;;5017154;28;20040;-61
2023/05/30 09:11:21;;;;;;;10.43;5.80;;;28.50;42.00;;;;;;5017030;28;20068;-63
2023/05/30 09:13:48;;;;;;;10.32;6.38;;;28.60;41.90;;;;;;5017006;28;20036;-62
2023/05/30 09:16:15;;;;;;;8.40;5.00;;;28.60;41.70;;;;;;5016764;28;20419;-61
2023/05/30 09:18:41;;;;;;;9.23;5.30;;;28.50;41.70;;;;;;5016688;28;20079;-63
2023/05/30 09:21:08;;;;;;;7.78;4.78;;;28.60;41.90;;;;;;5015952;28;20458;-63
2023/05/30 09:23:36;;;;;;;10.77;6.18;;;28.70;41.90;;;;;;5016588;28;20026;-62
2023/05/30 09:26:04;;;;;;;8.70;5.38;;;28.80;41.70;;;;;;5017121;28;20050;-62
2023/05/30 09:28:32;;;;;;;9.95;5.68;;;28.90;41.50;;;;;;5016838;28;20025;-62
2023/05/30 09:31:02;;;;;;;10.45;5.63;;;28.90;40.90;;;;;;5016367;28;20084;-61
2023/05/30 09:33:42;;;;;;;8.32;4.88;;;28.90;41.00;;;;;;5016041;28;20072;-63
2023/05/30 09:36:08;;;;;;;8.70;5.32;;;28.90;40.60;;;;;;5016606;28;20045;-61
2023/05/30 09:38:34;;;;;;;8.60;5.20;;;29.10;40.60;;;;;;5015629;28;20022;-61
2023/05/30 09:41:03;;;;;;;9.27;5.60;;;29.20;40.50;;;;;;5015709;28;20029;-61
2023/05/30 09:43:36;;;;;;;8.65;5.05;;;29.40;40.20;;;;;;5016108;28;20122;-63
2023/05/30 09:46:06;;;;;;;10.52;5.40;;;29.40;39.80;;;;;;5016276;28;20038;-62
2023/05/30 09:48:32;;;;;;;10.00;5.47;;;29.50;39.50;;;;;;5016472;28;20026;-60
2023/05/30 09:51:02;;;;;;;8.68;5.15;;;29.40;38.40;;;;;;5016120;28;20141;-60
2023/05/30 09:53:32;;;;;;;9.25;5.60;;;29.40;37.80;;;;;;5016594;28;20061;-61
2023/05/30 09:56:01;;;;;;;7.68;4.85;;;29.30;38.00;;;;;;5016058;28;20398;-62
2023/05/30 09:58:27;;;;;;;8.63;4.97;;;29.30;38.30;;;;;;5016051;28;20025;-63
2023/05/30 10:00:55;;;;;;;8.32;5.13;;;29.30;37.90;;;;;;5016216;28;20113;-62
2023/05/30 10:03:41;;;;;;;11.15;5.03;;;29.30;37.80;;;;;;5015830;28;20025;-62
2023/05/30 10:06:20;;;;;;;10.27;5.68;;;29.20;37.90;;;;;;5015890;28;20045;-63
2023/05/30 10:08:46;;;;;;;11.68;5.72;;;29.10;37.50;;;;;;5015218;28;20459;-62
2023/05/30 10:11:13;;;;;;;9.90;5.65;;;28.90;37.90;;;;;;5016238;28;20033;-65
2023/05/30 10:13:40;;;;;;;8.25;5.25;;;28.80;37.90;;;;;;5016197;28;20374;-62
2023/05/30 10:16:14;;;;;;;9.43;4.95;;;28.70;38.20;;;;;;5015772;28;20032;-62
2023/05/30 10:18:48;;;;;;;8.73;5.20;;;28.80;38.30;;;;;;5015990;28;20026;-60
2023/05/30 10:21:15;;;;;;;8.13;5.07;;;28.80;38.10;;;;;;5015948;28;20057;-62
2023/05/30 10:23:41;;;;;;;7.72;4.85;;;28.90;38.50;;;;;;5015496;28;20328;-61
2023/05/30 10:26:09;;;;;;;10.77;4.80;;;29.10;38.40;;;;;;5015557;28;20022;-65
2023/05/30 10:28:36;;;;;;;6.90;4.57;;;29.20;38.30;;;;;;5015796;28;20026;-62
2023/05/30 10:31:03;;;;;;;10.38;4.90;;;29.30;38.30;;;;;;5015540;28;20045;-62
2023/05/30 10:33:33;;;;;;;8.10;4.55;;;29.40;37.70;;;;;;5014613;28;20030;-63
2023/05/30 10:35:59;;;;;;;7.78;4.95;;;29.30;36.90;;;;;;5015747;28;20033;-61
2023/05/30 10:38:27;;;;;;;10.70;5.32;;;29.30;36.80;;;;;;5015487;28;20017;-61
2023/05/30 10:41:14;;;;;;;10.60;5.28;;;29.20;36.80;;;;;;5015955;28;20041;-61
2023/05/30 10:44:01;;;;;;;7.15;4.65;;;29.10;37.00;;;;;;5015626;28;20022;-61
2023/05/30 10:47:04;;;;;;;8.15;5.20;;;29.00;37.10;;;;;;5016111;28;20442;-62
2023/05/30 10:49:31;;;;;;;10.43;5.10;;;28.90;37.00;;;;;;5016362;28;20117;-63
2023/05/30 10:52:09;;;;;;;7.10;4.63;;;28.80;37.30;;;;;;5015321;28;20037;-63
2023/05/30 10:54:37;;;;;;;7.88;4.80;;;28.70;37.00;;;;;;5015197;28;20026;-62
2023/05/30 10:57:31;;;;;;;9.20;5.38;;;28.60;37.20;;;;;;5015515;28;20068;-63
2023/05/30 11:00:16;;;;;;;7.80;4.95;;;28.70;37.20;;;;;;5015566;28;20026;-61
2023/05/30 11:02:43;;;;;;;7.63;4.82;;;28.80;37.50;;;;;;5015778;28;20030;-63
2023/05/30 11:05:10;;;;;;;7.53;4.47;;;28.90;37.50;;;;;;4997809;28;20442;-62
2023/05/30 11:07:38;;;;;;;9.00;5.30;;;29.00;37.50;;;;;;5015218;28;20347;-63
2023/05/30 11:10:06;;;;;;;9.18;4.65;;;29.10;37.40;;;;;;5015153;28;20033;-63
2023/05/30 11:12:32;;;;;;;7.38;5.13;;;29.20;37.20;;;;;;5015467;28;20037;-61
2023/05/30 11:15:00;;;;;;;8.80;5.25;;;29.30;37.50;;;;;;5015103;28;20037;-64
2023/05/30 11:17:33;;;;;;;6.78;4.63;;;29.40;37.70;;;;;;4997827;28;20022;-62
2023/05/30 11:20:14;;;;;;;8.18;4.38;;;29.50;36.90;;;;;;5015393;28;20041;-63
2023/05/30 11:22:44;;;;;;;10.95;5.85;;;29.60;36.20;;;;;;5015081;28;20092;-62
2023/05/30 11:25:25;;;;;;;10.48;6.03;;;29.60;36.40;;;;;;5015210;28;20125;-63
2023/05/30 11:28:03;;;;;;;10.65;5.47;;;29.50;36.10;;;;;;5014995;28;20029;-62
2023/05/30 11:30:39;;;;;;;9.95;5.80;;;29.50;36.50;;;;;;5014609;28;20034;-62
2023/05/30 11:33:12;;;;;;;7.72;5.00;;;29.50;36.60;;;;;;5015477;28;20022;-63
2023/05/30 11:35:38;;;;;;;8.43;5.38;;;29.60;37.10;;;;;;5015460;28;20458;-62
2023/05/30 11:38:06;;;;;;;7.95;4.85;;;29.70;37.10;;;;;;5015196;28;20060;-61
2023/05/30 11:40:32;;;;;;;9.38;5.25;;;29.80;37.20;;;;;;5015137;28;20038;-62
2023/05/30 11:42:58;;;;;;;8.32;5.38;;;29.90;37.10;;;;;;5015713;28;20355;-62
2023/05/30 11:45:28;;;;;;;7.40;4.43;;;29.90;37.10;;;;;;5018445;28;20050;-61
2023/05/30 11:48:05;;;;;;;8.18;5.35;;;29.90;37.20;;;;;;5017630;28;20487;-62
2023/05/30 11:50:45;;;;;;;8.45;5.35;;;29.90;37.50;;;;;;5001879;28;20335;-64
2023/05/30 11:53:15;;;;;;;8.13;5.45;;;29.80;37.60;;;;;;5018604;28;20037;-61
2023/05/30 11:55:45;;;;;;;11.40;6.00;;;29.70;37.60;;;;;;5018321;28;20064;-61
2023/05/30 11:58:11;;;;;;;10.13;4.88;;;29.60;37.70;;;;;;5017169;28;20054;-62
2023/05/30 12:00:41;;;;;;;8.85;4.90;;;29.50;37.90;;;;;;5015644;28;20068;-61
2023/05/30 12:03:08;;;;;;;7.97;4.88;;;29.50;38.40;;;;;;5016100;28;20046;-63
2023/05/30 12:05:34;;;;;;;8.38;5.05;;;29.50;38.50;;;;;;5016131;28;20113;-63
2023/05/30 12:08:05;;;;;;;10.40;6.15;;;29.60;38.50;;;;;;5016138;28;20096;-62
2023/05/30 12:10:30;;;;;;;7.47;5.13;;;29.70;38.30;;;;;;5016606;28;20061;-62
2023/05/30 12:12:56;;;;;;;9.00;5.50;;;29.70;38.00;;;;;;5017314;28;20076;-62
2023/05/30 12:15:23;;;;;;;8.18;5.15;;;29.70;37.90;;;;;;5017930;28;20022;-61
2023/05/30 12:17:51;;;;;;;8.23;5.50;;;29.70;38.00;;;;;;5017918;28;20102;-62
2023/05/30 12:20:17;;;;;;;7.90;5.20;;;29.70;37.80;;;;;;5017878;28;20026;-62
2023/05/30 12:22:46;;;;;;;9.48;5.95;;;29.50;37.80;;;;;;5018148;28;20018;-62
2023/05/30 12:25:13;;;;;;;9.60;5.70;;;29.40;37.90;;;;;;5017774;28;20438;-63
2023/05/30 12:27:49;;;;;;;9.65;5.40;;;29.40;38.10;;;;;;5017722;28;20025;-63
2023/05/30 12:30:18;;;;;;;8.90;5.68;;;29.20;38.00;;;;;;5017610;28;20312;-63
2023/05/30 12:32:47;;;;;;;9.98;5.72;;;29.10;38.20;;;;;;5017673;28;20018;-61
2023/05/30 12:35:15;;;;;;;9.75;5.63;;;29.10;38.50;;;;;;5017810;28;20446;-61
2023/05/30 12:37:41;;;;;;;9.38;5.65;;;29.20;38.50;;;;;;5017526;28;20516;-62
2023/05/30 12:40:08;;;;;;;9.93;5.95;;;29.30;38.20;;;;;;5000291;28;20451;-61
2023/05/30 12:42:38;;;;;;;6.95;4.97;;;29.40;38.10;;;;;;5016875;28;20057;-61
2023/05/30 12:45:05;;;;;;;9.20;5.15;;;29.50;38.30;;;;;;5017376;28;20049;-61
2023/05/30 12:47:31;;;;;;;6.82;4.65;;;29.50;38.10;;;;;;5017430;28;20121;-63
2023/05/30 12:49:58;;;;;;;7.78;4.90;;;29.70;37.80;;;;;;5017603;28;20048;-62